weather.gov     
National Weather Service

Terminal Aerodrome Forecast
NWS Homepage
This page is being discontinued on March 12, 2014.
The same data is available at this site. Please update your bookmarks.
Thank you, and we apologize for the inconvenience.
Please send an email to SR-SRH.Webmaster@noaa.gov with any concerns.


Current Version
Previous Version:    01  02  03  04  05  06  07  08  09  10  11  12  13  14  15  16  17  18  19  20  21  22  23  
[Printable]
145
FTUS41 KLWX 212300
TAFCHO
TAF
KCHO 212334Z 2200/2224 06005KT P6SM SKC
     FM220600 00000KT P6SM BKN050
     FM221200 VRB03KT 6SM -FZRAPL SCT040 OVC060
     FM221500 VRB03KT 4SM -FZRA SCT020 OVC030
     FM221700 02004KT 5SM -RA SCT015 OVC025
     FM222200 02004KT 3SM -RA SCT015 OVC020=


U.S. Dept. of Commerce
NOAA National Weather Service
1325 East West Highway
Silver Spring, MD 20910
E-mail: w-nws.webmaster@noaa.gov
Page last modified: May 16, 2007
NATIONAL WEATHER SERVICE: for Safety, for Work, for Fun - FOR LIFE